Time;durP1;ratioP1;P1;durP2;ratioP2;P2;SDS_P1;SDS_P2;PMS_P1;PMS_P2;Temp;Humidity;BMP_temperature;BMP_pressure;BME280_temperature;BME280_humidity;BME280_pressure;Samples;Min_cycle;Max_cycle;Signal;HPM_P1;HPM_P2
2023/04/24 19:28:07;;;;;;;1999.90;999.90;;;15.40;99.90;;;;;;6196854;22;1525053;-57
2023/04/24 19:30:34;;;;;;;1999.90;999.90;;;15.40;99.90;;;;;;6241562;22;20016;-57
2023/04/24 19:33:00;;;;;;;1999.90;999.90;;;15.40;99.90;;;;;;6240751;22;20019;-57
2023/04/24 19:35:26;;;;;;;1999.90;999.90;;;15.40;99.90;;;;;;6236754;23;20016;-57
2023/04/24 19:37:52;;;;;;;1999.90;999.90;;;15.40;99.90;;;;;;6241799;23;20123;-57
2023/04/24 19:40:17;;;;;;;1999.90;999.90;;;15.40;99.90;;;;;;6238569;23;20105;-57
2023/04/24 19:42:44;;;;;;;1999.90;999.90;;;15.30;99.90;;;;;;6241157;23;20020;-57
2023/04/24 19:45:11;;;;;;;1999.90;999.90;;;15.40;99.90;;;;;;6240160;22;20052;-58
2023/04/24 19:47:37;;;;;;;1999.90;999.90;;;15.40;99.90;;;;;;6240134;22;20042;-57
2023/04/24 19:50:02;;;;;;;1999.90;999.90;;;15.30;99.90;;;;;;6237399;23;20012;-57
2023/04/24 19:52:28;;;;;;;1999.90;999.90;;;15.30;99.90;;;;;;6240799;23;20051;-57
2023/04/24 19:54:53;;;;;;;1999.90;999.90;;;15.30;99.90;;;;;;6241365;23;20095;-57
2023/04/24 19:57:19;;;;;;;1999.90;999.90;;;15.30;99.90;;;;;;6240464;22;20008;-57
2023/04/24 19:59:45;;;;;;;1999.90;999.90;;;15.30;99.90;;;;;;6239946;23;20024;-57
2023/04/24 20:02:12;;;;;;;1999.90;999.90;;;15.30;99.90;;;;;;6240237;23;20008;-57
2023/04/24 20:04:38;;;;;;;1999.90;999.90;;;15.20;99.90;;;;;;6213315;23;20015;-57
2023/04/24 20:07:03;;;;;;;1999.90;999.90;;;15.20;99.90;;;;;;6240551;23;20012;-57
2023/04/24 20:09:29;;;;;;;1999.90;999.90;;;15.20;99.90;;;;;;6240142;23;20008;-57
2023/04/24 20:11:55;;;;;;;1999.90;999.90;;;15.30;99.90;;;;;;6212510;23;20391;-57
2023/04/24 20:14:21;;;;;;;1999.90;999.90;;;15.20;99.90;;;;;;6240530;22;20453;-57
2023/04/24 20:16:48;;;;;;;1999.90;999.90;;;15.20;99.90;;;;;;6240453;22;20083;-57
2023/04/24 20:19:13;;;;;;;1999.90;999.90;;;15.20;99.90;;;;;;6239880;22;20076;-57
2023/04/24 20:21:39;;;;;;;1999.90;999.90;;;15.20;99.90;;;;;;6238345;22;20388;-57
2023/04/24 20:24:07;;;;;;;1999.90;999.90;;;15.20;99.90;;;;;;6240567;23;20086;-57
2023/04/24 20:26:35;;;;;;;1999.90;999.90;;;15.20;99.90;;;;;;6239339;22;20054;-58
2023/04/24 20:29:01;;;;;;;1999.90;999.90;;;15.20;99.90;;;;;;6238637;22;20477;-57
2023/04/24 20:31:27;;;;;;;1999.90;999.90;;;15.20;99.90;;;;;;6238009;23;20087;-57
2023/04/24 20:33:52;;;;;;;1999.90;999.90;;;15.20;99.90;;;;;;6238416;23;20114;-57
2023/04/24 20:36:18;;;;;;;1999.90;999.90;;;15.20;99.90;;;;;;6239790;23;20012;-57
2023/04/24 20:38:43;;;;;;;1999.90;999.90;;;15.20;99.90;;;;;;6241426;23;20015;-57
2023/04/24 20:41:09;;;;;;;1999.90;999.90;;;15.20;99.90;;;;;;6238171;23;20036;-57
2023/04/24 20:43:35;;;;;;;1999.90;999.90;;;15.10;99.90;;;;;;6237404;22;20027;-58
2023/04/24 20:46:01;;;;;;;1999.90;999.90;;;15.20;99.90;;;;;;6236363;23;20052;-61
2023/04/24 20:48:27;;;;;;;1999.90;999.90;;;15.20;99.90;;;;;;6238894;22;20020;-57
2023/04/24 20:50:53;;;;;;;1999.90;999.90;;;15.20;99.90;;;;;;6238032;23;20119;-56
2023/04/24 20:53:19;;;;;;;1999.90;999.90;;;15.20;99.90;;;;;;6236462;22;20048;-57
2023/04/24 20:55:45;;;;;;;1999.90;999.90;;;15.20;99.90;;;;;;6240804;23;20337;-57
2023/04/24 20:58:11;;;;;;;1999.90;999.90;;;15.20;99.90;;;;;;6238820;23;20333;-57
2023/04/24 21:00:37;;;;;;;1999.90;999.90;;;15.10;99.90;;;;;;6239619;23;20018;-57
2023/04/24 21:03:02;;;;;;;1999.90;999.90;;;15.10;99.90;;;;;;6237393;23;20016;-57
2023/04/24 21:05:28;;;;;;;1999.90;999.90;;;15.10;99.90;;;;;;6238246;23;20070;-57
2023/04/24 21:07:55;;;;;;;1999.90;999.90;;;15.10;99.90;;;;;;6240976;23;20015;-58
2023/04/24 21:10:24;;;;;;;1999.90;999.90;;;15.10;99.90;;;;;;6239969;22;20101;-57
2023/04/24 21:12:50;;;;;;;1999.90;999.90;;;15.10;99.90;;;;;;6237914;22;20016;-57
2023/04/24 21:15:16;;;;;;;1999.90;999.90;;;15.10;99.90;;;;;;6236003;23;20275;-57
2023/04/24 21:17:42;;;;;;;1999.90;999.90;;;15.10;99.90;;;;;;6238852;23;20066;-58
2023/04/24 21:20:08;;;;;;;1999.90;999.90;;;15.10;99.90;;;;;;6238557;23;20004;-59
2023/04/24 21:22:34;;;;;;;1999.90;999.90;;;15.10;99.90;;;;;;6243204;22;20022;-58
2023/04/24 21:25:03;;;;;;;1999.90;999.90;;;15.10;99.90;;;;;;6242005;23;20035;-58
2023/04/24 21:27:29;;;;;;;1999.90;999.90;;;15.10;99.90;;;;;;6242474;23;20107;-59
2023/04/24 21:29:55;;;;;;;1999.90;999.90;;;15.10;99.90;;;;;;6240482;22;20043;-58
2023/04/24 21:32:21;;;;;;;1999.90;999.90;;;15.10;99.90;;;;;;6239882;22;20009;-58
2023/04/24 21:34:46;;;;;;;1999.90;999.90;;;15.10;99.90;;;;;;6239996;23;20019;-58
2023/04/24 21:37:14;;;;;;;1999.90;999.90;;;15.00;99.90;;;;;;6240218;23;20321;-58
2023/04/24 21:39:40;;;;;;;1999.90;999.90;;;15.00;99.90;;;;;;6239725;22;20043;-58
2023/04/24 21:42:07;;;;;;;1999.90;999.90;;;15.10;99.90;;;;;;6238970;23;20448;-58
2023/04/24 21:44:32;;;;;;;1999.90;999.90;;;15.00;99.90;;;;;;6235072;23;20020;-58
2023/04/24 21:46:58;;;;;;;1999.90;999.90;;;15.00;99.90;;;;;;6232211;23;20031;-58
2023/04/24 21:49:24;;;;;;;1999.90;999.90;;;15.00;99.90;;;;;;6241539;22;20058;-58
2023/04/24 21:51:49;;;;;;;1999.90;999.90;;;15.00;99.90;;;;;;6242000;23;20061;-58
2023/04/24 21:54:15;;;;;;;1999.90;999.90;;;14.90;99.90;;;;;;6240923;23;20396;-58
2023/04/24 21:56:40;;;;;;;1999.90;999.90;;;14.90;99.90;;;;;;6243253;23;20368;-58
2023/04/24 21:59:07;;;;;;;1999.90;999.90;;;15.00;99.90;;;;;;6240718;23;20090;-58
2023/04/24 22:01:33;;;;;;;1999.90;999.90;;;15.00;99.90;;;;;;6241984;22;20389;-58
2023/04/24 22:03:59;;;;;;;1999.90;999.90;;;15.00;99.90;;;;;;6240071;22;20051;-58
2023/04/24 22:06:25;;;;;;;1999.90;999.90;;;14.90;99.90;;;;;;6239751;22;20507;-58
2023/04/24 22:08:51;;;;;;;1999.90;999.90;;;14.90;99.90;;;;;;6240459;22;20012;-58
2023/04/24 22:11:16;;;;;;;1999.90;999.90;;;14.90;99.90;;;;;;6237320;23;20052;-58
2023/04/24 22:13:42;;;;;;;1999.90;999.90;;;14.90;99.90;;;;;;6239720;23;20004;-58
2023/04/24 22:16:07;;;;;;;1999.90;999.90;;;14.90;99.90;;;;;;6238367;23;20461;-58
2023/04/24 22:18:33;;;;;;;1999.90;999.90;;;14.90;99.90;;;;;;6241265;23;20012;-58
2023/04/24 22:21:00;;;;;;;1999.90;999.90;;;14.90;99.90;;;;;;6240726;22;20012;-58
2023/04/24 22:23:25;;;;;;;1999.90;999.90;;;14.80;99.90;;;;;;6240827;23;20310;-58
2023/04/24 22:25:51;;;;;;;1999.90;999.90;;;14.80;99.90;;;;;;6241090;23;20023;-58
2023/04/24 22:28:16;;;;;;;1999.90;999.90;;;14.80;99.90;;;;;;6241092;23;20056;-58
2023/04/24 22:30:43;;;;;;;1999.90;999.90;;;14.80;99.90;;;;;;6242284;23;20020;-58
2023/04/24 22:33:09;;;;;;;1999.90;999.90;;;14.80;99.90;;;;;;6241563;22;20015;-60
2023/04/24 22:35:36;;;;;;;1999.90;999.90;;;14.80;99.90;;;;;;6242660;23;20004;-59
2023/04/24 22:38:02;;;;;;;1999.90;999.90;;;14.80;99.90;;;;;;6241955;22;20012;-59
2023/04/24 22:40:28;;;;;;;1999.90;999.90;;;14.80;99.90;;;;;;6241867;22;20012;-59
2023/04/24 22:42:54;;;;;;;1999.90;999.90;;;14.80;99.90;;;;;;6240783;23;20020;-59
2023/04/24 22:45:22;;;;;;;1999.90;999.90;;;14.80;99.90;;;;;;6240263;22;20083;-58
2023/04/24 22:47:49;;;;;;;1999.90;999.90;;;14.70;99.90;;;;;;6238591;23;20023;-59
2023/04/24 22:50:15;;;;;;;1999.90;999.90;;;14.70;99.90;;;;;;6240762;22;20031;-59
2023/04/24 22:52:42;;;;;;;1999.90;999.90;;;14.70;99.90;;;;;;6241222;22;20012;-58
2023/04/24 22:55:08;;;;;;;1999.90;999.90;;;14.70;99.90;;;;;;6239442;22;20012;-59
2023/04/24 22:57:35;;;;;;;1999.90;999.90;;;14.70;99.90;;;;;;6239298;23;20027;-59
2023/04/24 23:00:09;;;;;;;1999.90;999.90;;;14.70;99.90;;;;;;6241042;22;20044;-59
2023/04/24 23:02:38;;;;;;;1999.90;999.90;;;14.70;99.90;;;;;;6241942;22;20094;-59
2023/04/24 23:05:08;;;;;;;1999.90;999.90;;;14.70;99.90;;;;;;6237048;23;20073;-59
2023/04/24 23:07:34;;;;;;;1999.90;999.90;;;14.70;99.90;;;;;;6240868;22;20437;-58
2023/04/24 23:10:00;;;;;;;1999.90;999.90;;;14.70;99.90;;;;;;6239089;22;20012;-58
2023/04/24 23:12:26;;;;;;;1999.90;999.90;;;14.70;99.90;;;;;;6238461;23;20004;-59
2023/04/24 23:14:51;;;;;;;1999.90;999.90;;;14.60;99.90;;;;;;6240689;22;20057;-58
2023/04/24 23:17:17;;;;;;;1999.90;999.90;;;14.60;99.90;;;;;;6239968;23;20171;-59
2023/04/24 23:19:43;;;;;;;1999.90;999.90;;;14.60;99.90;;;;;;6241111;23;20333;-59
2023/04/24 23:22:09;;;;;;;1999.90;999.90;;;14.60;99.90;;;;;;6239144;23;20008;-58
2023/04/24 23:24:34;;;;;;;1999.90;999.90;;;14.60;99.90;;;;;;6241741;22;20070;-59
2023/04/24 23:27:00;;;;;;;1999.90;999.90;;;14.60;99.90;;;;;;6240620;23;20035;-58
2023/04/24 23:29:26;;;;;;;1999.90;999.90;;;14.60;99.90;;;;;;6242124;22;20365;-58
2023/04/24 23:31:52;;;;;;;1999.90;999.90;;;14.60;99.90;;;;;;6242024;23;20306;-59
2023/04/24 23:34:19;;;;;;;1999.90;999.90;;;14.60;99.90;;;;;;6240953;22;20022;-58
2023/04/24 23:36:48;;;;;;;1999.90;999.90;;;14.60;99.90;;;;;;6242053;22;20018;-59
2023/04/24 23:39:14;;;;;;;1999.90;999.90;;;14.60;99.90;;;;;;6241021;22;20459;-58
2023/04/24 23:41:42;;;;;;;1999.90;999.90;;;14.50;99.90;;;;;;6239623;23;20015;-59
2023/04/24 23:44:07;;;;;;;1999.90;999.90;;;14.50;99.90;;;;;;6238080;22;20377;-59
2023/04/24 23:46:33;;;;;;;1999.90;999.90;;;14.50;99.90;;;;;;6239877;23;20024;-59
2023/04/24 23:48:58;;;;;;;1999.90;999.90;;;14.50;99.90;;;;;;6236745;23;20349;-58
2023/04/24 23:51:24;;;;;;;1999.90;999.90;;;14.50;99.90;;;;;;6240818;23;20013;-58
2023/04/24 23:53:52;;;;;;;1999.90;999.90;;;14.50;99.90;;;;;;6238015;23;20436;-58
2023/04/24 23:56:18;;;;;;;1999.90;999.90;;;14.50;99.90;;;;;;6239657;22;20019;-58
2023/04/24 23:58:45;;;;;;;1999.90;999.90;;;14.50;99.90;;;;;;6241453;22;20188;-58
